createdAt,value
2023-02-04T00:00:19.110Z,103220.25
2023-02-04T00:02:47.353Z,103227.97
2023-02-04T00:05:15.866Z,103217.41
2023-02-04T00:07:43.788Z,103224.38
2023-02-04T00:10:11.922Z,103231.31
2023-02-04T00:12:41.190Z,103240.28
2023-02-04T00:15:10.866Z,103237.44
2023-02-04T00:17:39.566Z,103233.63
2023-02-04T00:20:08.207Z,103229.66
2023-02-04T00:22:36.149Z,103239.97
2023-02-04T00:25:04.099Z,103241.56
2023-02-04T00:27:31.980Z,103237.44
2023-02-04T00:30:01.298Z,103234.47
2023-02-04T00:32:29.597Z,103237.88
2023-02-04T00:34:57.624Z,103242.06
2023-02-04T00:37:25.495Z,103240.38
2023-02-04T00:39:53.401Z,103241.84
2023-02-04T00:42:21.258Z,103245.44
2023-02-04T00:44:49.376Z,103240.88
2023-02-04T00:47:18.694Z,103242.81
2023-02-04T00:49:46.526Z,103245.44
2023-02-04T00:52:14.613Z,103246.38
2023-02-04T00:54:42.602Z,103241.22
2023-02-04T00:57:10.575Z,103242.91
2023-02-04T00:59:38.437Z,103250.81
2023-02-04T01:02:06.357Z,103238.47
2023-02-04T01:04:35.621Z,103243.75
2023-02-04T01:07:03.496Z,103245.44
2023-02-04T01:09:31.434Z,103247.34
2023-02-04T01:11:59.382Z,103243.75
2023-02-04T01:14:27.245Z,103245.88
2023-02-04T01:16:55.069Z,103241.56
2023-02-04T01:19:22.968Z,103245.88
2023-02-04T01:21:52.301Z,103243.22
2023-02-04T01:24:20.180Z,103257.50
2023-02-04T01:26:48.033Z,103252.09
2023-02-04T01:29:15.939Z,103262.88
2023-02-04T01:31:43.883Z,103265.53
2023-02-04T01:34:11.819Z,103270.81
2023-02-04T01:36:39.791Z,103274.19
2023-02-04T01:39:09.188Z,103274.41
2023-02-04T01:41:36.993Z,103282.31
2023-02-04T01:44:05.051Z,103288.22
2023-02-04T01:46:34.471Z,103280.53
2023-02-04T01:49:02.554Z,103285.41
2023-02-04T01:51:32.152Z,103287.81
2023-02-04T01:54:00.426Z,103284.13
2023-02-04T01:56:31.488Z,103288.34
2023-02-04T01:59:00.043Z,103284.75
2023-02-04T02:01:35.472Z,103291.06
2023-02-04T02:04:03.431Z,103290.13
2023-02-04T02:06:31.310Z,103287.38
2023-02-04T02:08:59.603Z,103298.91
2023-02-04T02:11:28.073Z,103298.03
2023-02-04T02:13:58.206Z,103297.44
2023-02-04T02:16:26.154Z,103296.69
2023-02-04T02:18:54.710Z,103294.88
2023-02-04T02:21:27.702Z,103293.84
2023-02-04T02:23:58.312Z,103298.16
2023-02-04T02:26:26.362Z,103306.28
2023-02-04T02:28:55.117Z,103304.84
2023-02-04T02:31:23.982Z,103313.47
2023-02-04T02:33:52.024Z,103304.94
2023-02-04T02:36:20.112Z,103308.66
2023-02-04T02:38:48.004Z,103312.66
2023-02-04T02:41:17.252Z,103322.25
2023-02-04T02:43:45.096Z,103314.31
2023-02-04T02:46:13.105Z,103316.84
2023-02-04T02:48:41.009Z,103319.84
2023-02-04T02:51:08.968Z,103318.97
2023-02-04T02:53:37.277Z,103315.59
2023-02-04T02:56:08.380Z,103322.88
2023-02-04T02:58:37.644Z,103321.41
2023-02-04T03:01:06.527Z,103317.72
2023-02-04T03:03:35.369Z,103317.81
2023-02-04T03:06:06.769Z,103316.25
2023-02-04T03:08:34.844Z,103316.25
2023-02-04T03:11:02.944Z,103309.16
2023-02-04T03:13:31.068Z,103306.53
2023-02-04T03:16:01.046Z,103305.06
2023-02-04T03:18:29.047Z,103313.94
2023-02-04T03:20:57.338Z,103299.06
2023-02-04T03:23:25.260Z,103302.53
2023-02-04T03:25:53.637Z,103304.84
2023-02-04T03:28:21.469Z,103294.03
2023-02-04T03:30:56.590Z,103305.56
2023-02-04T03:33:28.159Z,103296.94
2023-02-04T03:35:56.391Z,103305.06
2023-02-04T03:38:25.905Z,103304.66
2023-02-04T03:40:53.885Z,103308.00
2023-02-04T03:43:21.964Z,103314.97
2023-02-04T03:45:49.944Z,103302.75
2023-02-04T03:48:17.953Z,103304.41
2023-02-04T03:50:47.236Z,103299.97
2023-02-04T03:53:15.130Z,103305.69
2023-02-04T03:55:43.020Z,103324.91
2023-02-04T03:58:10.868Z,103317.31
2023-02-04T04:00:38.861Z,103312.66
2023-02-04T04:03:06.864Z,103327.03
2023-02-04T04:05:34.848Z,103314.56
2023-02-04T04:08:04.026Z,103323.44
2023-02-04T04:10:32.393Z,103317.22
2023-02-04T04:13:00.546Z,103310.78
2023-02-04T04:15:28.490Z,103305.69
2023-02-04T04:17:56.281Z,103305.59
2023-02-04T04:20:25.687Z,103296.94
2023-02-04T04:22:53.579Z,103307.72
2023-02-04T04:25:22.955Z,103292.72
2023-02-04T04:27:50.874Z,103305.69
2023-02-04T04:30:19.120Z,103297.78
2023-02-04T04:32:47.081Z,103302.09
2023-02-04T04:35:15.157Z,103295.16
2023-02-04T04:37:43.180Z,103292.50
2023-02-04T04:40:12.756Z,103291.56
2023-02-04T04:42:42.028Z,103298.84
2023-02-04T04:45:10.515Z,103307.50
2023-02-04T04:47:38.337Z,103311.94
2023-02-04T04:50:06.420Z,103312.03
2023-02-04T04:52:34.444Z,103303.28
2023-02-04T04:55:02.374Z,103316.47
2023-02-04T04:57:30.205Z,103314.78
2023-02-04T04:59:59.497Z,103307.81
2023-02-04T05:02:27.672Z,103307.81
2023-02-04T05:04:58.570Z,103309.63
2023-02-04T05:07:26.537Z,103317.41
2023-02-04T05:09:54.492Z,103314.91
2023-02-04T05:12:22.395Z,103320.28
2023-02-04T05:14:50.331Z,103309.75
2023-02-04T05:17:19.787Z,103326.50
2023-02-04T05:19:47.713Z,103315.94
2023-02-04T05:22:15.558Z,103327.47
2023-02-04T05:24:43.375Z,103320.72
2023-02-04T05:27:11.231Z,103326.75
2023-02-04T05:29:39.223Z,103331.06
2023-02-04T05:32:07.082Z,103331.91
2023-02-04T05:34:36.480Z,103330.22
2023-02-04T05:37:04.447Z,103331.78
2023-02-04T05:39:32.354Z,103330.84
2023-02-04T05:42:00.257Z,103327.47
2023-02-04T05:44:28.140Z,103320.28
2023-02-04T05:46:56.032Z,103322.28
2023-02-04T05:49:24.871Z,103319.34
2023-02-04T05:51:54.237Z,103316.47
2023-02-04T05:54:22.150Z,103315.53
2023-02-04T05:56:51.871Z,103306.34
2023-02-04T05:59:19.797Z,103304.66
2023-02-04T06:01:47.636Z,103312.59
2023-02-04T06:04:16.675Z,103310.78
2023-02-04T06:06:44.893Z,103307.81
2023-02-04T06:09:14.555Z,103302.66
2023-02-04T06:11:42.496Z,103295.59
2023-02-04T06:14:10.890Z,103298.13
2023-02-04T06:16:38.805Z,103308.78
2023-02-04T06:19:06.744Z,103300.13
2023-02-04T06:21:34.566Z,103299.41
2023-02-04T06:24:03.520Z,103307.09
2023-02-04T06:26:33.418Z,103309.75
2023-02-04T06:29:02.606Z,103306.34
2023-02-04T06:31:30.692Z,103314.78
2023-02-04T06:33:58.833Z,103308.66
2023-02-04T06:36:26.811Z,103308.03
2023-02-04T06:38:54.788Z,103303.00
2023-02-04T06:41:22.847Z,103306.22
2023-02-04T06:43:52.069Z,103305.31
2023-02-04T06:46:20.119Z,103297.28
2023-02-04T06:48:48.047Z,103301.91
2023-02-04T06:51:16.458Z,103313.09
2023-02-04T06:53:46.127Z,103307.81
2023-02-04T06:56:14.031Z,103314.47
2023-02-04T06:58:42.022Z,103308.53
2023-02-04T07:01:11.290Z,103306.16
2023-02-04T07:03:39.273Z,103303.38
2023-02-04T07:06:07.319Z,103305.91
2023-02-04T07:08:35.296Z,103299.72
2023-02-04T07:11:03.276Z,103302.22
2023-02-04T07:13:31.249Z,103308.66
2023-02-04T07:15:59.106Z,103301.47
2023-02-04T07:18:28.546Z,103299.72
2023-02-04T07:20:56.567Z,103293.22
2023-02-04T07:23:25.597Z,103300.22
2023-02-04T07:25:54.128Z,103287.13
2023-02-04T07:28:21.990Z,103297.06
2023-02-04T07:30:49.982Z,103284.59
2023-02-04T07:33:18.861Z,103295.78
2023-02-04T07:35:48.145Z,103287.94
2023-02-04T07:38:16.020Z,103288.28
2023-02-04T07:40:43.963Z,103291.56
2023-02-04T07:43:12.132Z,103285.22
2023-02-04T07:45:40.033Z,103287.03
2023-02-04T07:48:07.931Z,103288.81
2023-02-04T07:50:35.825Z,103284.38
2023-02-04T07:53:05.198Z,103288.91
2023-02-04T07:55:33.142Z,103290.59
2023-02-04T07:58:01.004Z,103300.44
2023-02-04T08:00:29.047Z,103300.22
2023-02-04T08:02:56.937Z,103298.41
2023-02-04T08:05:24.832Z,103314.47
2023-02-04T08:07:52.818Z,103304.66
2023-02-04T08:10:22.598Z,103312.91
2023-02-04T08:12:50.484Z,103306.34
2023-02-04T08:15:18.384Z,103315.31
2023-02-04T08:17:46.282Z,103324.91
2023-02-04T08:20:14.336Z,103322.59
2023-02-04T08:22:42.326Z,103316.25
2023-02-04T08:25:11.782Z,103319.84
2023-02-04T08:27:41.108Z,103317.94
2023-02-04T08:30:09.990Z,103324.16
2023-02-04T08:32:38.085Z,103312.91
2023-02-04T08:35:06.607Z,103318.19
2023-02-04T08:37:34.527Z,103325.13
2023-02-04T08:40:02.369Z,103315.03
2023-02-04T08:42:30.499Z,103323.03
2023-02-04T08:44:59.769Z,103325.13
2023-02-04T08:47:27.656Z,103327.66
2023-02-04T08:49:55.605Z,103326.69
2023-02-04T08:52:23.532Z,103325.66
2023-02-04T08:54:51.524Z,103320.50
2023-02-04T08:57:19.552Z,103329.13
2023-02-04T08:59:47.400Z,103331.13
2023-02-04T09:02:16.695Z,103337.38
2023-02-04T09:04:44.602Z,103341.47
2023-02-04T09:07:12.525Z,103337.75
2023-02-04T09:09:40.459Z,103349.59
2023-02-04T09:12:08.400Z,103351.28
2023-02-04T09:14:36.325Z,103356.34
2023-02-04T09:17:05.943Z,103357.94
2023-02-04T09:19:35.265Z,103360.59
2023-02-04T09:22:03.086Z,103366.38
2023-02-04T09:24:30.882Z,103359.31
2023-02-04T09:26:58.761Z,103364.47
2023-02-04T09:29:26.556Z,103363.94
2023-02-04T09:31:54.584Z,103369.94
2023-02-04T09:34:22.709Z,103360.22
2023-02-04T09:36:52.020Z,103360.22
2023-02-04T09:39:19.934Z,103358.66
2023-02-04T09:41:47.822Z,103354.84
2023-02-04T09:44:17.497Z,103358.75
2023-02-04T09:46:48.618Z,103358.97
2023-02-04T09:49:16.642Z,103365.19
2023-02-04T09:51:45.104Z,103362.44
2023-02-04T09:54:15.533Z,103362.53
2023-02-04T09:56:43.576Z,103353.25
2023-02-04T09:59:12.972Z,103356.38
2023-02-04T10:01:41.057Z,103356.91
2023-02-04T10:04:11.763Z,103358.38
2023-02-04T10:06:40.029Z,103355.59
2023-02-04T10:09:07.988Z,103371.25
2023-02-04T10:11:38.595Z,103365.53
2023-02-04T10:14:06.676Z,103358.59
2023-02-04T10:16:36.260Z,103362.41
2023-02-04T10:19:05.306Z,103363.88
2023-02-04T10:21:34.757Z,103368.72
2023-02-04T10:24:04.025Z,103366.63
2023-02-04T10:26:32.615Z,103373.78
2023-02-04T10:29:04.064Z,103375.13
2023-02-04T10:31:41.117Z,103366.59
2023-02-04T10:34:12.489Z,103374.84
2023-02-04T10:36:40.768Z,103381.25
2023-02-04T10:39:12.788Z,103375.78
2023-02-04T10:41:45.691Z,103380.78
2023-02-04T10:44:16.187Z,103372.75
2023-02-04T10:46:43.987Z,103373.72
2023-02-04T10:49:19.288Z,103375.25
2023-02-04T10:51:47.918Z,103381.69
2023-02-04T10:54:31.586Z,103383.03
2023-02-04T10:57:05.908Z,103386.75
2023-02-04T10:59:35.900Z,103377.25
2023-02-04T11:02:16.516Z,103380.53
2023-02-04T11:04:44.359Z,103379.34
2023-02-04T11:07:15.041Z,103373.56
2023-02-04T11:09:43.238Z,103373.09
2023-02-04T11:12:20.496Z,103377.09
2023-02-04T11:14:57.546Z,103376.44
2023-02-04T11:17:31.587Z,103376.88
2023-02-04T11:20:00.878Z,103377.72
2023-02-04T11:22:42.117Z,103379.16
2023-02-04T11:25:24.881Z,103381.47
2023-02-04T11:27:52.733Z,103383.16
2023-02-04T11:30:23.741Z,103390.25
2023-02-04T11:33:02.188Z,103373.22
2023-02-04T11:35:31.046Z,103387.34
2023-02-04T11:37:59.677Z,103383.88
2023-02-04T11:40:29.317Z,103381.34
2023-02-04T11:42:58.318Z,103377.75
2023-02-04T11:45:28.729Z,103372.97
2023-02-04T11:47:58.744Z,103370.22
2023-02-04T11:50:29.229Z,103370.94
2023-02-04T11:52:57.830Z,103381.72
2023-02-04T11:55:26.367Z,103382.34
2023-02-04T11:57:55.026Z,103379.25
2023-02-04T12:00:23.819Z,103379.59
2023-02-04T12:02:56.592Z,103369.28
2023-02-04T12:05:36.208Z,103365.19
2023-02-04T12:08:11.933Z,103361.41
2023-02-04T12:10:39.988Z,103358.44
2023-02-04T12:13:14.350Z,103360.94
2023-02-04T12:15:42.252Z,103358.16
2023-02-04T12:18:12.995Z,103358.78
2023-02-04T12:20:40.900Z,103357.47
2023-02-04T12:23:08.826Z,103353.75
2023-02-04T12:25:37.223Z,103356.91
2023-02-04T12:28:05.471Z,103356.41
2023-02-04T12:30:33.437Z,103353.06
2023-02-04T12:33:01.364Z,103352.09
2023-02-04T12:35:30.961Z,103351.84
2023-02-04T12:37:59.142Z,103352.56
2023-02-04T12:40:27.001Z,103355.44
2023-02-04T12:42:54.909Z,103368.44
2023-02-04T12:45:22.761Z,103366.28
2023-02-04T12:47:50.738Z,103367.50
2023-02-04T12:50:22.777Z,103364.72
2023-02-04T12:52:53.512Z,103367.25
2023-02-04T12:55:21.607Z,103368.31
2023-02-04T12:57:49.589Z,103369.16
2023-02-04T13:00:18.574Z,103376.38
2023-02-04T13:02:46.780Z,103385.56
2023-02-04T13:05:14.980Z,103378.81
2023-02-04T13:07:43.265Z,103384.22
2023-02-04T13:10:13.558Z,103373.78
2023-02-04T13:12:41.596Z,103375.09
2023-02-04T13:15:10.142Z,103374.97
2023-02-04T13:17:38.013Z,103377.63
2023-02-04T13:20:09.012Z,103380.00
2023-02-04T13:22:36.792Z,103373.03
2023-02-04T13:25:04.900Z,103370.41
2023-02-04T13:27:34.170Z,103367.03
2023-02-04T13:30:02.041Z,103362.97
2023-02-04T13:32:29.957Z,103353.34
2023-02-04T13:34:57.880Z,103347.81
2023-02-04T13:37:25.722Z,103347.22
2023-02-04T13:39:53.564Z,103362.47
2023-02-04T13:42:21.707Z,103361.28
2023-02-04T13:44:50.923Z,103354.31
2023-02-04T13:47:18.810Z,103351.16
2023-02-04T13:49:46.872Z,103350.56
2023-02-04T13:52:14.758Z,103363.78
2023-02-04T13:54:42.655Z,103358.13
2023-02-04T13:57:10.539Z,103363.66
2023-02-04T13:59:38.478Z,103353.53
2023-02-04T14:02:07.929Z,103351.16
2023-02-04T14:04:36.949Z,103356.56
2023-02-04T14:07:04.981Z,103350.66
2023-02-04T14:09:32.870Z,103354.78
2023-02-04T14:12:00.766Z,103354.03
2023-02-04T14:14:28.676Z,103366.41
2023-02-04T14:16:56.587Z,103365.94
2023-02-04T14:19:27.718Z,103371.34
2023-02-04T14:21:55.661Z,103361.00
2023-02-04T14:24:23.563Z,103373.88
2023-02-04T14:26:51.947Z,103374.34
2023-02-04T14:29:19.953Z,103371.84
2023-02-04T14:31:47.841Z,103377.38
2023-02-04T14:34:15.811Z,103375.44
2023-02-04T14:36:45.076Z,103380.03
2023-02-04T14:39:12.999Z,103372.34
2023-02-04T14:41:40.973Z,103390.41
2023-02-04T14:44:08.778Z,103382.44
2023-02-04T14:46:36.631Z,103378.84
2023-02-04T14:49:04.640Z,103387.25
2023-02-04T14:51:32.534Z,103391.47
2023-02-04T14:54:02.754Z,103394.81
2023-02-04T14:56:30.597Z,103404.09
2023-02-04T14:58:58.451Z,103414.06
2023-02-04T15:01:27.634Z,103421.16
2023-02-04T15:03:55.544Z,103425.75
2023-02-04T15:06:23.437Z,103430.41
2023-02-04T15:08:51.409Z,103440.38
2023-02-04T15:11:20.670Z,103443.03
2023-02-04T15:13:48.529Z,103437.97
2023-02-04T15:16:16.441Z,103444.56
2023-02-04T15:18:44.602Z,103457.66
2023-02-04T15:21:13.156Z,103468.25
2023-02-04T15:23:40.995Z,103477.41
2023-02-04T15:26:08.900Z,103479.91
2023-02-04T15:28:38.191Z,103486.75
2023-02-04T15:31:06.458Z,103494.81
2023-02-04T15:33:34.469Z,103497.81
2023-02-04T15:36:02.361Z,103500.72
2023-02-04T15:38:30.188Z,103511.97
2023-02-04T15:40:58.029Z,103509.03
2023-02-04T15:43:25.912Z,103522.38
2023-02-04T15:45:55.176Z,103533.63
2023-02-04T15:48:24.188Z,103531.97
2023-02-04T15:50:52.121Z,103542.97
2023-02-04T15:53:19.998Z,103542.75
2023-02-04T15:55:47.976Z,103550.81
2023-02-04T15:58:16.398Z,103564.34
2023-02-04T16:00:44.339Z,103569.97
2023-02-04T16:03:13.626Z,103591.19
2023-02-04T16:05:41.547Z,103604.13
2023-02-04T16:08:09.519Z,103616.81
2023-02-04T16:10:37.319Z,103617.97
2023-02-04T16:13:05.211Z,103639.91
2023-02-04T16:15:33.475Z,103658.91
2023-02-04T16:18:01.646Z,103678.44
2023-02-04T16:20:30.967Z,103687.34
2023-02-04T16:22:58.828Z,103681.03
2023-02-04T16:25:26.805Z,103698.22
2023-02-04T16:27:54.736Z,103692.38
2023-02-04T16:30:22.751Z,103699.38
2023-02-04T16:32:50.605Z,103709.66
2023-02-04T16:35:18.585Z,103712.66
2023-02-04T16:37:47.867Z,103714.16
2023-02-04T16:40:15.650Z,103726.59
2023-02-04T16:42:43.582Z,103725.94
2023-02-04T16:45:13.513Z,103733.00
2023-02-04T16:47:41.516Z,103739.84
2023-02-04T16:50:09.896Z,103755.03
2023-02-04T16:52:37.872Z,103754.81
2023-02-04T16:55:07.630Z,103766.13
2023-02-04T16:57:35.604Z,103768.00
2023-02-04T17:00:03.375Z,103770.75
2023-02-04T17:02:32.327Z,103782.22
2023-02-04T17:05:01.624Z,103790.88
2023-02-04T17:07:29.460Z,103798.03
2023-02-04T17:09:57.442Z,103815.03
2023-02-04T17:12:26.681Z,103820.16
2023-02-04T17:14:54.543Z,103833.44
2023-02-04T17:17:22.383Z,103834.16
2023-02-04T17:19:50.186Z,103832.56
2023-02-04T17:22:17.981Z,103834.25
2023-02-04T17:24:46.025Z,103839.63
2023-02-04T17:27:14.222Z,103854.69
2023-02-04T17:29:43.457Z,103857.88
2023-02-04T17:32:12.584Z,103871.84
2023-02-04T17:34:40.498Z,103876.06
2023-02-04T17:37:08.316Z,103884.19
2023-02-04T17:39:36.140Z,103893.84
2023-02-04T17:42:04.057Z,103901.94
2023-02-04T17:44:34.026Z,103905.59
2023-02-04T17:47:03.455Z,103913.66
2023-02-04T17:49:33.589Z,103917.22
2023-02-04T17:52:02.177Z,103922.41
2023-02-04T17:54:30.231Z,103911.03
2023-02-04T17:56:58.991Z,103904.91
2023-02-04T17:59:27.343Z,103921.81
2023-02-04T18:01:55.543Z,103927.16
2023-02-04T18:04:25.113Z,103926.41
2023-02-04T18:06:53.299Z,103922.00
2023-02-04T18:09:21.316Z,103935.25
2023-02-04T18:11:49.264Z,103930.16
2023-02-04T18:14:18.190Z,103945.22
2023-02-04T18:16:46.470Z,103953.19
2023-02-04T18:19:18.997Z,103969.09
2023-02-04T18:21:48.917Z,103979.63
2023-02-04T18:24:19.316Z,103987.78
2023-02-04T18:26:48.032Z,103999.25
2023-02-04T18:29:25.832Z,104000.88
2023-02-04T18:31:54.796Z,103997.56
2023-02-04T18:34:27.440Z,104009.09
2023-02-04T18:36:56.790Z,104020.59
2023-02-04T18:39:27.764Z,104028.56
2023-02-04T18:41:55.716Z,104030.44
2023-02-04T18:44:32.886Z,104024.41
2023-02-04T18:47:03.307Z,104013.44
2023-02-04T18:49:33.838Z,104021.16
2023-02-04T18:52:06.699Z,104038.91
2023-02-04T18:54:35.873Z,104034.84
2023-02-04T18:57:17.415Z,104035.94
2023-02-04T18:59:45.260Z,104037.03
2023-02-04T19:02:25.207Z,104042.28
2023-02-04T19:05:11.120Z,104047.69
2023-02-04T19:07:41.766Z,104058.31
2023-02-04T19:10:25.934Z,104063.69
2023-02-04T19:12:54.384Z,104057.72
2023-02-04T19:15:35.131Z,104066.59
2023-02-04T19:18:15.844Z,104071.13
2023-02-04T19:20:43.739Z,104072.09
2023-02-04T19:23:17.476Z,104088.94
2023-02-04T19:25:46.891Z,104090.94
2023-02-04T19:28:24.605Z,104096.13
2023-02-04T19:30:55.382Z,104099.06
2023-02-04T19:33:26.714Z,104092.31
2023-02-04T19:35:54.808Z,104111.66
2023-02-04T19:38:34.959Z,104121.44
2023-02-04T19:41:02.756Z,104121.59
2023-02-04T19:43:36.551Z,104120.88
2023-02-04T19:46:18.367Z,104117.47
2023-02-04T19:48:46.957Z,104110.53
2023-02-04T19:51:26.420Z,104110.75
2023-02-04T19:53:59.221Z,104117.09
2023-02-04T19:56:30.660Z,104110.13
2023-02-04T19:59:01.225Z,104094.47
2023-02-04T20:01:30.498Z,104090.16
2023-02-04T20:04:01.251Z,104086.72
2023-02-04T20:06:31.204Z,104073.66
2023-02-04T20:09:02.067Z,104081.69
2023-02-04T20:11:47.401Z,104082.63
2023-02-04T20:14:23.515Z,104088.91
2023-02-04T20:16:52.626Z,104087.34
2023-02-04T20:19:21.858Z,104096.22
2023-02-04T20:21:59.233Z,104097.16
2023-02-04T20:24:31.435Z,104092.00
2023-02-04T20:26:59.563Z,104095.81
2023-02-04T20:29:27.416Z,104090.56
2023-02-04T20:31:55.801Z,104095.19
2023-02-04T20:34:24.581Z,104100.53
2023-02-04T20:36:52.689Z,104097.19
2023-02-04T20:39:41.482Z,104087.66
2023-02-04T20:42:27.573Z,104087.63
2023-02-04T20:44:56.019Z,104086.19
2023-02-04T20:47:25.181Z,104089.63
2023-02-04T20:49:55.230Z,104094.91
2023-02-04T20:52:51.261Z,104096.56
2023-02-04T20:55:27.296Z,104098.66
2023-02-04T20:57:59.855Z,104106.75
2023-02-04T21:00:30.303Z,104115.53
2023-02-04T21:03:01.314Z,104112.97
2023-02-04T21:05:29.189Z,104109.50
2023-02-04T21:07:58.011Z,104127.09
2023-02-04T21:10:27.334Z,104121.00
2023-02-04T21:12:59.470Z,104129.81
2023-02-04T21:15:27.447Z,104128.25
2023-02-04T21:17:55.381Z,104138.16
2023-02-04T21:20:23.332Z,104154.00
2023-02-04T21:22:51.272Z,104161.00
2023-02-04T21:25:19.218Z,104174.22
2023-02-04T21:27:48.490Z,104188.38
2023-02-04T21:30:17.632Z,104194.47
2023-02-04T21:32:45.781Z,104187.56
2023-02-04T21:35:13.742Z,104193.84
2023-02-04T21:37:41.596Z,104195.66
2023-02-04T21:40:09.927Z,104197.44
2023-02-04T21:42:37.901Z,104205.50
2023-02-04T21:45:08.138Z,104204.88
2023-02-04T21:47:36.119Z,104209.16
2023-02-04T21:50:03.993Z,104210.84
2023-02-04T21:52:32.007Z,104218.72
2023-02-04T21:54:59.882Z,104218.78
2023-02-04T21:57:27.680Z,104210.19
2023-02-04T21:59:55.756Z,104214.66
2023-02-04T22:02:25.690Z,104227.94
2023-02-04T22:04:53.586Z,104251.63
2023-02-04T22:07:21.693Z,104243.88
2023-02-04T22:09:50.277Z,104227.41
2023-02-04T22:12:18.169Z,104251.97
2023-02-04T22:15:04.458Z,104248.41
2023-02-04T22:17:33.975Z,104242.31
2023-02-04T22:20:01.874Z,104243.94
2023-02-04T22:22:29.796Z,104243.94
2023-02-04T22:24:57.742Z,104246.72
2023-02-04T22:27:25.839Z,104256.31
2023-02-04T22:29:53.869Z,104280.03
2023-02-04T22:32:21.809Z,104282.81
2023-02-04T22:34:51.206Z,104277.59
2023-02-04T22:37:19.206Z,104279.31
2023-02-04T22:39:47.036Z,104274.94
2023-02-04T22:42:15.036Z,104280.31
2023-02-04T22:44:43.094Z,104285.66
2023-02-04T22:47:11.115Z,104312.97
2023-02-04T22:49:39.011Z,104330.50
2023-02-04T22:52:08.291Z,104350.88
2023-02-04T22:54:37.907Z,104369.34
2023-02-04T22:57:05.812Z,104371.91
2023-02-04T22:59:33.836Z,104371.97
2023-02-04T23:02:01.775Z,104376.31
2023-02-04T23:04:29.723Z,104368.53
2023-02-04T23:06:57.620Z,104365.22
2023-02-04T23:09:27.000Z,104370.41
2023-02-04T23:11:56.909Z,104377.50
2023-02-04T23:14:24.844Z,104370.59
2023-02-04T23:16:52.873Z,104369.88
2023-02-04T23:19:20.784Z,104370.75
2023-02-04T23:21:48.680Z,104372.50
2023-02-04T23:24:16.638Z,104377.75
2023-02-04T23:26:45.894Z,104384.81
2023-02-04T23:29:13.877Z,104399.03
2023-02-04T23:31:41.854Z,104414.09
2023-02-04T23:34:09.741Z,104442.53
2023-02-04T23:36:38.021Z,104439.06
2023-02-04T23:39:05.953Z,104439.91
2023-02-04T23:41:33.969Z,104432.09
2023-02-04T23:44:03.185Z,104417.16
2023-02-04T23:46:31.037Z,104412.72
2023-02-04T23:48:58.917Z,104398.94
2023-02-04T23:51:26.882Z,104395.38
2023-02-04T23:53:54.771Z,104389.31
2023-02-04T23:56:22.674Z,104397.44
2023-02-04T23:58:50.635Z,104392.09
